Time;durP1;ratioP1;P1;durP2;ratioP2;P2;SDS_P1;SDS_P2;PMS_P1;PMS_P2;Temp;Humidity;BMP_temperature;BMP_pressure;BME280_temperature;BME280_humidity;BME280_pressure;Samples;Min_cycle;Max_cycle;Signal;HPM_P1;HPM_P2
2023/10/30 00:01:36;;;;;;;;;;;10.80;99.90;;;;;;5133949;27;19934;-77
2023/10/30 00:04:03;;;;;;;;;;;10.00;99.90;;;;;;5134275;27;19926;-77
2023/10/30 00:06:32;;;;;;;;;;;10.80;99.90;;;;;;5151469;27;19994;-77
2023/10/30 00:08:58;;;;;;;;;;;10.80;99.90;;;;;;5132514;27;19927;-77
2023/10/30 00:11:49;;;;;;;;;;;10.80;99.90;;;;;;5119915;27;19930;-77
2023/10/30 00:14:19;;;;;;;;;;;10.80;99.90;;;;;;5149218;27;19934;-76
2023/10/30 00:16:45;;;;;;;;;;;10.80;99.90;;;;;;5123292;27;19929;-75
2023/10/30 00:19:12;;;;;;;;;;;10.80;99.90;;;;;;5130446;27;19934;-76
2023/10/30 00:21:41;;;;;;;;;;;10.80;99.90;;;;;;5131576;27;19927;-77
2023/10/30 00:24:07;;;;;;;;;;;10.80;99.90;;;;;;5133600;27;19937;-78
2023/10/30 00:26:40;;;;;;;;;;;10.80;99.90;;;;;;5141922;27;19948;-78
2023/10/30 00:29:12;;;;;;;;;;;10.80;99.90;;;;;;5138876;27;19998;-78
2023/10/30 00:31:40;;;;;;;;;;;10.80;99.90;;;;;;5149801;27;19955;-77
2023/10/30 00:34:11;;;;;;;;;;;10.80;99.90;;;;;;5151258;27;19932;-78
2023/10/30 00:36:40;;;;;;;;;;;10.80;99.90;;;;;;5130349;27;20061;-78
2023/10/30 00:39:06;;;;;;;;;;;10.70;99.90;;;;;;5151815;27;20029;-76
2023/10/30 00:41:38;;;;;;;;;;;10.70;99.90;;;;;;5133811;27;19985;-78
2023/10/30 00:44:09;;;;;;;;;;;10.70;99.90;;;;;;5124038;27;19930;-77
2023/10/30 00:46:36;;;;;;;;;;;10.70;99.90;;;;;;5134059;27;19931;-76
2023/10/30 00:49:02;;;;;;;;;;;10.70;99.90;;;;;;5118703;27;19938;-77
2023/10/30 00:51:29;;;;;;;;;;;10.70;99.90;;;;;;5121566;27;19927;-78
2023/10/30 00:53:58;;;;;;;;;;;10.60;99.90;;;;;;5150258;27;20117;-78
2023/10/30 00:56:29;;;;;;;;;;;10.60;99.90;;;;;;5119974;27;19927;-78
2023/10/30 00:58:57;;;;;;;;;;;10.60;99.90;;;;;;5131266;27;19930;-77
2023/10/30 01:01:34;;;;;;;;;;;10.60;99.90;;;;;;5116568;27;20023;-78
2023/10/30 01:04:00;;;;;;;;;;;10.60;99.90;;;;;;5118230;27;19927;-78
2023/10/30 01:06:26;;;;;;;;;;;10.60;99.90;;;;;;5134938;27;19945;-77
2023/10/30 01:09:13;;;;;;;;;;;10.70;99.90;;;;;;5135607;27;19964;-77
2023/10/30 01:11:41;;;;;;;;;;;10.70;99.90;;;;;;5124798;27;19979;-77
2023/10/30 01:14:16;;;;;;;;;;;10.70;99.90;;;;;;5148939;27;19983;-77
2023/10/30 01:16:42;;;;;;;;;;;10.60;99.90;;;;;;5129080;27;19948;-77
2023/10/30 01:19:08;;;;;;;;;;;10.70;99.90;;;;;;5131237;27;19927;-77
2023/10/30 01:21:37;;;;;;;;;;;10.60;99.90;;;;;;5121570;27;19978;-76
2023/10/30 01:24:06;;;;;;;;;;;10.60;99.90;;;;;;5148060;27;20071;-77
2023/10/30 01:26:39;;;;;;;;;;;10.60;99.90;;;;;;5121965;27;19927;-76
2023/10/30 01:29:05;;;;;;;;;;;10.70;99.90;;;;;;5121249;27;19931;-77
2023/10/30 01:31:30;;;;;;;;;;;10.60;99.90;;;;;;5128410;27;20289;-76
2023/10/30 01:33:56;;;;;;;;;;;10.70;99.90;;;;;;5148354;27;19930;-77
2023/10/30 01:36:22;;;;;;;;;;;10.70;99.90;;;;;;5133540;27;19979;-76
2023/10/30 01:38:48;;;;;;;;;;;10.70;99.90;;;;;;5150284;27;20725;-76
2023/10/30 01:41:14;;;;;;;;;;;10.70;99.90;;;;;;5146292;27;19927;-78
2023/10/30 01:43:39;;;;;;;;;;;10.70;99.90;;;;;;5116107;27;19926;-76
2023/10/30 01:46:08;;;;;;;;;;;10.70;99.90;;;;;;5129798;27;20053;-77
2023/10/30 01:48:35;;;;;;;;;;;10.70;99.90;;;;;;5148367;27;19931;-77
2023/10/30 01:51:02;;;;;;;;;;;10.70;99.90;;;;;;5131607;27;20008;-77
2023/10/30 01:53:29;;;;;;;;;;;10.70;99.90;;;;;;5115843;27;19927;-78
2023/10/30 01:55:55;;;;;;;;;;;10.70;99.90;;;;;;5117840;27;19934;-77
2023/10/30 01:58:22;;;;;;;;;;;10.70;99.90;;;;;;5105221;27;20751;-78
2023/10/30 02:00:49;;;;;;;;;;;10.70;99.90;;;;;;5116382;27;19927;-77
2023/10/30 02:03:14;;;;;;;;;;;10.70;99.90;;;;;;5115128;27;19933;-78
2023/10/30 02:05:40;;;;;;;;;;;10.70;99.90;;;;;;5118666;27;19927;-77
2023/10/30 02:08:06;;;;;;;;;;;10.70;99.90;;;;;;5112215;27;21716;-77
2023/10/30 02:10:32;;;;;;;;;;;10.70;99.90;;;;;;5112744;27;19934;-76
2023/10/30 02:12:58;;;;;;;;;;;10.70;99.90;;;;;;5131134;27;20480;-77
2023/10/30 02:15:23;;;;;;;;;;;10.70;99.90;;;;;;5118152;27;20341;-76
2023/10/30 02:17:53;;;;;;;;;;;10.70;99.90;;;;;;5147440;27;19931;-77
2023/10/30 02:20:19;;;;;;;;;;;10.70;99.90;;;;;;5129596;27;19922;-76
2023/10/30 02:22:45;;;;;;;;;;;10.60;99.90;;;;;;5118861;27;19971;-78
2023/10/30 02:25:11;;;;;;;;;;;10.50;99.90;;;;;;5116928;27;19985;-78
2023/10/30 02:27:36;;;;;;;;;;;10.50;99.90;;;;;;5131502;27;21680;-77
2023/10/30 02:30:04;;;;;;;;;;;10.40;99.90;;;;;;5128698;27;19927;-77
2023/10/30 02:32:30;;;;;;;;;;;10.30;99.90;;;;;;5120003;27;20037;-76
2023/10/30 02:34:55;;;;;;;;;;;10.30;99.90;;;;;;5115196;27;20019;-77
2023/10/30 02:37:21;;;;;;;;;;;10.20;99.90;;;;;;5105703;27;19931;-76
2023/10/30 02:39:47;;;;;;;;;;;10.20;99.90;;;;;;5134678;27;19931;-78
2023/10/30 02:42:15;;;;;;;;;;;10.20;99.90;;;;;;5115809;27;19934;-76
2023/10/30 02:44:40;;;;;;;;;;;10.10;99.90;;;;;;5106315;27;19974;-78
2023/10/30 02:47:07;;;;;;;;;;;10.10;99.90;;;;;;5149991;27;20690;-77
2023/10/30 02:49:34;;;;;;;;;;;10.00;99.90;;;;;;5123330;27;20025;-77
2023/10/30 02:52:00;;;;;;;;;;;10.00;99.90;;;;;;5133392;27;19923;-76
2023/10/30 02:54:26;;;;;;;;;;;10.00;99.90;;;;;;5134154;27;20045;-76
2023/10/30 02:56:52;;;;;;;;;;;10.00;99.90;;;;;;5108322;27;20217;-77
2023/10/30 02:59:17;;;;;;;;;;;10.30;99.90;;;;;;5105538;27;19931;-77
2023/10/30 03:01:44;;;;;;;;;;;10.00;99.90;;;;;;5119106;27;19975;-77
2023/10/30 03:04:13;;;;;;;;;;;10.00;99.90;;;;;;5105499;27;19963;-77
2023/10/30 03:06:39;;;;;;;;;;;10.00;99.90;;;;;;5123028;27;22280;-76
2023/10/30 03:09:04;;;;;;;;;;;10.20;99.90;;;;;;5121409;27;20841;-77
2023/10/30 03:11:30;;;;;;;;;;;10.10;99.90;;;;;;5138022;27;19934;-76
2023/10/30 03:13:56;;;;;;;;;;;10.10;99.90;;;;;;5133193;27;19934;-77
2023/10/30 03:16:22;;;;;;;;;;;10.00;99.90;;;;;;5133986;27;19930;-77
2023/10/30 03:18:47;;;;;;;;;;;10.00;99.90;;;;;;5117870;27;19934;-78
2023/10/30 03:21:14;;;;;;;;;;;10.00;99.90;;;;;;5116551;27;20277;-76
2023/10/30 03:23:46;;;;;;;;;;;10.00;99.90;;;;;;5121844;27;19927;-77
2023/10/30 03:26:12;;;;;;;;;;;10.00;99.90;;;;;;5117102;27;19926;-78
2023/10/30 03:28:37;;;;;;;;;;;10.00;99.90;;;;;;5108033;27;19923;-77
2023/10/30 03:31:06;;;;;;;;;;;10.00;99.90;;;;;;5130829;27;19930;-76
2023/10/30 03:33:32;;;;;;;;;;;10.00;99.90;;;;;;5121118;27;19930;-79
2023/10/30 03:35:58;;;;;;;;;;;10.00;99.90;;;;;;5134010;27;19930;-77
2023/10/30 03:38:24;;;;;;;;;;;9.90;99.90;;;;;;5136899;27;19952;-78
2023/10/30 03:40:51;;;;;;;;;;;10.00;99.90;;;;;;5136514;27;19966;-77
2023/10/30 03:43:19;;;;;;;;;;;10.00;99.90;;;;;;5154312;27;20061;-77
2023/10/30 03:45:45;;;;;;;;;;;10.00;99.90;;;;;;5152216;27;19970;-77
2023/10/30 03:48:11;;;;;;;;;;;10.00;99.90;;;;;;5122458;27;19934;-78
2023/10/30 03:50:37;;;;;;;;;;;10.00;99.90;;;;;;5106395;27;20045;-78
2023/10/30 03:53:11;;;;;;;;;;;10.00;99.90;;;;;;5121296;27;19938;-76
2023/10/30 03:55:36;;;;;;;;;;;10.00;99.90;;;;;;5122367;27;20248;-78
2023/10/30 03:58:05;;;;;;;;;;;10.00;99.90;;;;;;5150972;27;20415;-77
2023/10/30 04:00:35;;;;;;;;;;;10.00;99.90;;;;;;5152463;27;20053;-76
2023/10/30 04:03:01;;;;;;;;;;;10.00;99.90;;;;;;5135794;27;20065;-77
2023/10/30 04:05:27;;;;;;;;;;;10.00;99.90;;;;;;5108755;27;19927;-77
2023/10/30 04:07:54;;;;;;;;;;;10.00;99.90;;;;;;5117963;27;19923;-77
2023/10/30 04:10:19;;;;;;;;;;;10.10;99.90;;;;;;5119128;27;19930;-77
2023/10/30 04:12:45;;;;;;;;;;;10.10;99.90;;;;;;5132687;27;19923;-78
2023/10/30 04:15:15;;;;;;;;;;;10.00;99.90;;;;;;5120688;27;20360;-75
2023/10/30 04:17:44;;;;;;;;;;;10.00;99.90;;;;;;5151971;27;19926;-78
2023/10/30 04:20:09;;;;;;;;;;;10.00;99.90;;;;;;5115672;27;19929;-76
2023/10/30 04:22:35;;;;;;;;;;;10.00;99.90;;;;;;5121463;27;19927;-76
2023/10/30 04:25:03;;;;;;;;;;;9.90;99.90;;;;;;5131782;27;19938;-77
2023/10/30 04:27:39;;;;;;;;;;;9.90;99.90;;;;;;5141778;27;20019;-77
2023/10/30 04:30:04;;;;;;;;;;;9.90;99.90;;;;;;5130382;27;19927;-76
2023/10/30 04:32:38;;;;;;;;;;;9.90;99.90;;;;;;5123712;27;20005;-76
2023/10/30 04:35:03;;;;;;;;;;;9.90;99.90;;;;;;5119749;27;20411;-78
2023/10/30 04:37:42;;;;;;;;;;;9.90;99.90;;;;;;5133310;27;19934;-77
2023/10/30 04:40:08;;;;;;;;;;;9.90;99.90;;;;;;5103726;27;19931;-77
2023/10/30 04:42:34;;;;;;;;;;;9.90;99.90;;;;;;5122260;27;19931;-77
2023/10/30 04:44:59;;;;;;;;;;;9.90;99.90;;;;;;5122626;27;19972;-77
2023/10/30 04:47:35;;;;;;;;;;;10.00;99.90;;;;;;5150697;27;20347;-76
2023/10/30 04:50:12;;;;;;;;;;;10.00;99.90;;;;;;5132647;27;19929;-76
2023/10/30 04:52:39;;;;;;;;;;;10.00;99.90;;;;;;5135364;27;19967;-78
2023/10/30 04:55:07;;;;;;;;;;;10.00;99.90;;;;;;5138189;27;20021;-77
2023/10/30 04:57:34;;;;;;;;;;;10.00;99.90;;;;;;5135002;27;20507;-77
2023/10/30 05:00:00;;;;;;;;;;;10.00;99.90;;;;;;5119184;27;19955;-77
2023/10/30 05:02:28;;;;;;;;;;;10.00;99.90;;;;;;5122701;27;20017;-77
2023/10/30 05:05:01;;;;;;;;;;;10.30;99.90;;;;;;5134005;27;20015;-76
2023/10/30 05:07:27;;;;;;;;;;;10.00;99.90;;;;;;5123694;27;20543;-76
2023/10/30 05:09:53;;;;;;;;;;;10.00;99.90;;;;;;5121520;27;19931;-77
2023/10/30 05:12:20;;;;;;;;;;;10.00;99.90;;;;;;5129008;27;20478;-77
2023/10/30 05:14:46;;;;;;;;;;;9.70;99.90;;;;;;5114315;27;19930;-78
2023/10/30 05:17:18;;;;;;;;;;;10.00;99.90;;;;;;5081169;28;19927;-77
2023/10/30 05:19:44;;;;;;;;;;;10.00;99.90;;;;;;5059822;28;19928;-78
2023/10/30 05:22:13;;;;;;;;;;;9.90;99.90;;;;;;5090541;27;20608;-78
2023/10/30 05:24:39;;;;;;;;;;;9.90;99.90;;;;;;5093405;28;19928;-77
2023/10/30 05:27:05;;;;;;;;;;;9.90;99.90;;;;;;5081392;28;20017;-77
2023/10/30 05:29:37;;;;;;;;;;;9.90;99.90;;;;;;5045844;28;19949;-77
2023/10/30 05:32:06;;;;;;;;;;;9.90;99.90;;;;;;5075216;28;19934;-76
2023/10/30 05:34:46;;;;;;;;;;;9.90;99.90;;;;;;5078779;28;19927;-76
2023/10/30 05:37:13;;;;;;;;;;;9.90;99.90;;;;;;5063354;28;19928;-76
2023/10/30 05:39:43;;;;;;;;;;;9.80;99.90;;;;;;5079607;28;19931;-75
2023/10/30 05:42:10;;;;;;;;;;;9.80;99.90;;;;;;5076871;28;19943;-78
2023/10/30 05:44:46;;;;;;;;;;;9.80;99.90;;;;;;5040104;28;19977;-77
2023/10/30 05:47:13;;;;;;;;;;;9.80;99.90;;;;;;5041682;28;19968;-76
2023/10/30 05:49:39;;;;;;;;;;;9.70;99.90;;;;;;5096951;27;19984;-81
2023/10/30 05:52:04;;;;;;;;;;;9.70;99.90;;;;;;5111215;27;20049;-80
2023/10/30 05:54:30;;;;;;;;;;;9.70;99.90;;;;;;5078923;27;20772;-81
2023/10/30 05:56:56;;;;;;;;;;;9.70;99.90;;;;;;5098423;27;19928;-79
2023/10/30 05:59:22;;;;;;;;;;;9.60;99.90;;;;;;5094643;27;19923;-80
2023/10/30 06:01:48;;;;;;;;;;;9.60;99.90;;;;;;5082132;27;19927;-79
2023/10/30 06:04:13;;;;;;;;;;;9.60;99.90;;;;;;5098107;27;20053;-80
2023/10/30 06:06:39;;;;;;;;;;;9.60;99.90;;;;;;5083222;27;19934;-79
2023/10/30 06:09:06;;;;;;;;;;;9.60;99.90;;;;;;5099217;27;19932;-79
2023/10/30 06:11:32;;;;;;;;;;;9.50;99.90;;;;;;5064420;27;19924;-78
2023/10/30 06:13:58;;;;;;;;;;;9.50;99.90;;;;;;5080891;27;19931;-78
2023/10/30 06:16:23;;;;;;;;;;;9.50;99.90;;;;;;5110092;27;20377;-79
2023/10/30 06:18:49;;;;;;;;;;;9.50;99.90;;;;;;5114371;27;19931;-78
2023/10/30 06:21:18;;;;;;;;;;;9.50;99.90;;;;;;5132267;27;19934;-75
2023/10/30 06:23:43;;;;;;;;;;;9.50;99.90;;;;;;5127638;27;20728;-77
2023/10/30 06:26:12;;;;;;;;;;;9.50;99.90;;;;;;5117050;27;19951;-80
2023/10/30 06:28:38;;;;;;;;;;;9.50;99.90;;;;;;5150747;27;19926;-81
2023/10/30 06:31:12;;;;;;;;;;;9.50;99.90;;;;;;5129726;27;20078;-80
2023/10/30 06:33:37;;;;;;;;;;;9.50;99.90;;;;;;5129412;27;19926;-80
2023/10/30 06:36:03;;;;;;;;;;;9.50;99.90;;;;;;5119236;27;19931;-79
2023/10/30 06:38:29;;;;;;;;;;;9.50;99.90;;;;;;5115293;27;19975;-81
2023/10/30 06:40:54;;;;;;;;;;;9.50;99.90;;;;;;5130979;27;19942;-80
2023/10/30 06:43:21;;;;;;;;;;;9.60;99.90;;;;;;5147814;27;19923;-82
2023/10/30 06:46:02;;;;;;;;;;;9.50;99.90;;;;;;5121708;27;19930;-80
2023/10/30 06:48:28;;;;;;;;;;;9.50;99.90;;;;;;5132941;27;19931;-79
2023/10/30 06:50:55;;;;;;;;;;;9.60;99.90;;;;;;5121015;27;19927;-80
2023/10/30 06:53:21;;;;;;;;;;;9.60;99.90;;;;;;5120487;27;19938;-77
2023/10/30 06:55:47;;;;;;;;;;;9.60;99.90;;;;;;5139238;27;20318;-77
2023/10/30 06:58:13;;;;;;;;;;;9.60;99.90;;;;;;5100824;27;19957;-78
2023/10/30 07:00:38;;;;;;;;;;;9.60;99.90;;;;;;5133483;27;19927;-77
2023/10/30 07:03:04;;;;;;;;;;;9.70;99.90;;;;;;5148398;27;20005;-77
2023/10/30 07:05:30;;;;;;;;;;;9.70;99.90;;;;;;5100361;27;20274;-77
2023/10/30 07:07:56;;;;;;;;;;;9.70;99.90;;;;;;5102660;27;19927;-77
2023/10/30 07:10:28;;;;;;;;;;;9.70;99.90;;;;;;5147990;27;19923;-76
2023/10/30 07:12:59;;;;;;;;;;;9.70;99.90;;;;;;5130062;27;19980;-75
2023/10/30 07:15:26;;;;;;;;;;;9.80;99.90;;;;;;5116825;27;19923;-76
2023/10/30 07:17:56;;;;;;;;;;;9.80;99.90;;;;;;5134261;27;19941;-76
2023/10/30 07:20:21;;;;;;;;;;;9.80;99.90;;;;;;5127313;27;19926;-81
2023/10/30 07:22:59;;;;;;;;;;;9.80;99.90;;;;;;5134533;27;19946;-77
2023/10/30 07:25:24;;;;;;;;;;;9.80;99.90;;;;;;5131387;27;19966;-78
2023/10/30 07:27:50;;;;;;;;;;;9.90;99.90;;;;;;5131177;27;19935;-80
2023/10/30 07:30:16;;;;;;;;;;;9.90;99.90;;;;;;5128377;27;19970;-78
2023/10/30 07:32:42;;;;;;;;;;;9.90;99.90;;;;;;5123017;27;19931;-78
2023/10/30 07:35:07;;;;;;;;;;;9.90;99.90;;;;;;5130384;27;19975;-78
2023/10/30 07:37:34;;;;;;;;;;;10.00;99.90;;;;;;5134258;27;19926;-78
2023/10/30 07:40:02;;;;;;;;;;;10.00;99.90;;;;;;5150487;27;19931;-79
2023/10/30 07:42:28;;;;;;;;;;;10.10;99.90;;;;;;5118857;27;19930;-78
2023/10/30 07:44:54;;;;;;;;;;;10.20;99.90;;;;;;5131902;27;20500;-78
2023/10/30 07:47:20;;;;;;;;;;;10.20;99.90;;;;;;5132773;27;19927;-77
2023/10/30 07:49:45;;;;;;;;;;;10.20;99.90;;;;;;5129544;27;19927;-76
2023/10/30 07:52:12;;;;;;;;;;;10.30;99.90;;;;;;5130805;27;19938;-75
2023/10/30 07:54:40;;;;;;;;;;;10.30;99.90;;;;;;5128744;27;19934;-77
2023/10/30 07:57:08;;;;;;;;;;;10.30;99.90;;;;;;5121250;27;19927;-76
2023/10/30 07:59:35;;;;;;;;;;;10.40;99.90;;;;;;5130452;27;21327;-78
2023/10/30 08:02:01;;;;;;;;;;;10.40;99.90;;;;;;5135084;27;19926;-75
2023/10/30 08:04:26;;;;;;;;;;;10.40;99.90;;;;;;5103703;27;20387;-74
2023/10/30 08:06:52;;;;;;;;;;;10.40;99.90;;;;;;5120024;27;20005;-76
2023/10/30 08:09:25;;;;;;;;;;;10.50;99.90;;;;;;5128992;27;19989;-72
2023/10/30 08:11:50;;;;;;;;;;;10.50;99.90;;;;;;5132195;27;19934;-75
2023/10/30 08:14:19;;;;;;;;;;;10.50;99.90;;;;;;5135358;27;20348;-76
2023/10/30 08:16:45;;;;;;;;;;;10.60;99.90;;;;;;5118370;27;19932;-76
2023/10/30 08:19:17;;;;;;;;;;;10.70;99.90;;;;;;5150753;27;19997;-75
2023/10/30 08:21:46;;;;;;;;;;;10.70;99.90;;;;;;5149735;27;19958;-77
2023/10/30 08:24:18;;;;;;;;;;;10.70;99.90;;;;;;5131812;27;20447;-75
2023/10/30 08:26:45;;;;;;;;;;;10.70;99.90;;;;;;5128741;27;19937;-75
2023/10/30 08:29:26;;;;;;;;;;;10.70;99.90;;;;;;5133085;27;19974;-75
2023/10/30 08:31:58;;;;;;;;;;;10.70;99.90;;;;;;5099030;27;20104;-75
2023/10/30 08:34:28;;;;;;;;;;;10.70;99.90;;;;;;5101639;27;19931;-75
2023/10/30 08:37:00;;;;;;;;;;;10.80;99.90;;;;;;5085075;27;20355;-75
2023/10/30 08:39:25;;;;;;;;;;;10.90;99.90;;;;;;5088402;27;19931;-76
2023/10/30 08:41:51;;;;;;;;;;;9.80;99.90;;;;;;5095234;27;19931;-75
2023/10/30 08:44:21;;;;;;;;;;;10.90;99.90;;;;;;5115835;27;19950;-75
2023/10/30 08:47:05;;;;;;;;;;;10.90;99.90;;;;;;5097362;27;19985;-75
2023/10/30 08:49:36;;;;;;;;;;;10.90;99.90;;;;;;5112542;27;21061;-75
2023/10/30 08:52:03;;;;;;;;;;;10.00;99.90;;;;;;5100215;27;19927;-74
2023/10/30 08:54:35;;;;;;;;;;;10.90;99.90;;;;;;5101150;27;19938;-75
2023/10/30 08:57:01;;;;;;;;;;;11.00;99.90;;;;;;5084003;27;19936;-75
2023/10/30 08:59:28;;;;;;;;;;;11.00;99.90;;;;;;5102243;27;19934;-75
2023/10/30 09:02:02;;;;;;;;;;;11.00;99.90;;;;;;5129074;27;20377;-74
2023/10/30 09:04:29;;;;;;;;;;;11.00;99.90;;;;;;5120514;27;19973;-75
2023/10/30 09:06:59;;;;;;;;;;;11.00;99.90;;;;;;5117598;27;19931;-76
2023/10/30 09:09:32;;;;;;;;;;;11.00;99.90;;;;;;5131253;27;20377;-75
2023/10/30 09:11:58;;;;;;;;;;;11.10;99.90;;;;;;5131642;27;19927;-75
2023/10/30 09:14:24;;;;;;;;;;;11.10;99.90;;;;;;5101111;27;20508;-73
2023/10/30 09:16:58;;;;;;;;;;;11.20;99.90;;;;;;5143493;27;20274;-75
2023/10/30 09:19:40;;;;;;;;;;;11.20;99.90;;;;;;5077834;27;21049;-75
2023/10/30 09:22:20;;;;;;;;;;;11.20;99.90;;;;;;5073127;28;20640;-74
2023/10/30 09:25:11;;;;;;;;;;;11.30;99.90;;;;;;5087347;28;19981;-75
2023/10/30 09:28:06;;;;;;;;;;;11.40;99.90;;;;;;5092231;28;19928;-74
2023/10/30 09:31:18;;;;;;;;;;;11.40;99.90;;;;;;5086221;28;19928;-76
2023/10/30 09:34:17;;;;;;;;;;;11.60;99.90;;;;;;5090731;28;19932;-74
2023/10/30 09:36:58;;;;;;;;;;;11.60;99.90;;;;;;5041472;28;20044;-75
2023/10/30 09:39:48;;;;;;;;;;;11.90;99.90;;;;;;5088608;28;20048;-75
2023/10/30 09:42:36;;;;;;;;;;;12.00;99.90;;;;;;5041687;28;19998;-74
2023/10/30 09:45:45;;;;;;;;;;;12.10;99.90;;;;;;5088827;28;19943;-75
2023/10/30 09:48:54;;;;;;;;;;;12.20;99.90;;;;;;4988001;28;19976;-76
2023/10/30 09:51:59;;;;;;;;;;;12.40;99.90;;;;;;5115578;27;20301;-75
2023/10/30 09:54:26;;;;;;;;;;;12.50;99.90;;;;;;5109686;27;20300;-74
2023/10/30 09:57:08;;;;;;;;;;;12.60;99.90;;;;;;5137695;27;19934;-74
2023/10/30 09:59:37;;;;;;;;;;;12.80;99.90;;;;;;5140424;27;20022;-74
2023/10/30 10:02:02;;;;;;;;;;;12.80;99.90;;;;;;5132292;27;20006;-74
2023/10/30 10:04:28;;;;;;;;;;;12.70;99.90;;;;;;5116893;27;20278;-76
2023/10/30 10:07:02;;;;;;;;;;;12.70;99.90;;;;;;5123776;27;19979;-74
2023/10/30 10:09:58;;;;;;;;;;;12.70;99.90;;;;;;5117426;27;19950;-75
2023/10/30 10:12:31;;;;;;;;;;;12.70;99.90;;;;;;5150445;27;19927;-74
2023/10/30 10:14:59;;;;;;;;;;;12.70;99.90;;;;;;5125868;27;19930;-75
2023/10/30 10:17:25;;;;;;;;;;;12.70;99.90;;;;;;5118470;27;19926;-74
2023/10/30 10:19:52;;;;;;;;;;;12.80;99.90;;;;;;5121104;27;19923;-74
2023/10/30 10:22:31;;;;;;;;;;;12.80;99.90;;;;;;5127371;27;19930;-73
2023/10/30 10:25:02;;;;;;;;;;;12.90;99.90;;;;;;5119194;27;19934;-74
2023/10/30 10:27:35;;;;;;;;;;;13.00;99.90;;;;;;5105241;27;19927;-74
2023/10/30 10:30:10;;;;;;;;;;;13.00;99.90;;;;;;5130837;27;20320;-74
2023/10/30 10:32:42;;;;;;;;;;;13.00;99.90;;;;;;5114582;27;20449;-73
2023/10/30 10:35:09;;;;;;;;;;;12.90;99.90;;;;;;5130477;27;20021;-74
2023/10/30 10:37:34;;;;;;;;;;;13.00;99.90;;;;;;5119489;27;19931;-74
2023/10/30 10:40:08;;;;;;;;;;;13.10;99.90;;;;;;5128893;27;19930;-74
2023/10/30 10:42:44;;;;;;;;;;;13.40;99.90;;;;;;5148498;27;19993;-75
2023/10/30 10:45:11;;;;;;;;;;;14.00;99.90;;;;;;5087170;28;19992;-73
2023/10/30 10:47:40;;;;;;;;;;;13.60;99.90;;;;;;5089208;28;19924;-74
2023/10/30 10:50:21;;;;;;;;;;;13.70;99.90;;;;;;5086086;28;19954;-75
2023/10/30 10:52:48;;;;;;;;;;;13.80;99.90;;;;;;5059986;28;20531;-78
2023/10/30 10:55:18;;;;;;;;;;;13.80;99.90;;;;;;5061296;28;19942;-75
2023/10/30 10:58:04;;;;;;;;;;;13.80;99.90;;;;;;5069967;28;20402;-75
2023/10/30 11:00:40;;;;;;;;;;;13.80;99.90;;;;;;5068072;28;19927;-75
2023/10/30 11:03:12;;;;;;;;;;;13.80;99.90;;;;;;5088058;28;19990;-75
2023/10/30 11:05:38;;;;;;;;;;;14.00;99.90;;;;;;5073198;27;19947;-78
2023/10/30 11:08:04;;;;;;;;;;;14.10;99.90;;;;;;5076114;28;20561;-77
2023/10/30 11:10:32;;;;;;;;;;;14.20;99.90;;;;;;5087948;28;19927;-76
2023/10/30 11:13:15;;;;;;;;;;;14.40;99.90;;;;;;5063038;28;19971;-79
2023/10/30 11:15:45;;;;;;;;;;;14.40;99.90;;;;;;5109851;27;20017;-74
2023/10/30 11:18:20;;;;;;;;;;;14.40;99.90;;;;;;5133437;27;21036;-78
2023/10/30 11:20:46;;;;;;;;;;;14.30;99.90;;;;;;5148568;27;19927;-75
2023/10/30 11:23:12;;;;;;;;;;;14.30;99.90;;;;;;5131394;27;19934;-75
2023/10/30 11:25:53;;;;;;;;;;;14.20;99.90;;;;;;5133224;27;20011;-76
2023/10/30 11:28:22;;;;;;;;;;;14.10;99.90;;;;;;5124917;27;19931;-76
2023/10/30 11:30:48;;;;;;;;;;;14.10;99.90;;;;;;5133077;27;19987;-76
2023/10/30 11:33:19;;;;;;;;;;;14.10;99.90;;;;;;5130404;27;19934;-76
2023/10/30 11:35:45;;;;;;;;;;;14.20;99.90;;;;;;5132262;27;20021;-75
2023/10/30 11:38:11;;;;;;;;;;;14.20;99.90;;;;;;5121125;27;19930;-75
2023/10/30 11:40:37;;;;;;;;;;;14.20;99.90;;;;;;5130028;27;19927;-75
2023/10/30 11:43:06;;;;;;;;;;;14.10;99.90;;;;;;5129905;27;20061;-75
2023/10/30 11:45:32;;;;;;;;;;;14.10;99.90;;;;;;5130655;27;20550;-75
2023/10/30 11:48:01;;;;;;;;;;;14.20;99.90;;;;;;5130896;27;19931;-76
2023/10/30 11:50:29;;;;;;;;;;;14.30;99.90;;;;;;5132093;27;19931;-75
2023/10/30 11:52:57;;;;;;;;;;;14.50;99.90;;;;;;5116561;27;19937;-75
2023/10/30 11:55:23;;;;;;;;;;;14.70;99.90;;;;;;5148889;27;19971;-75
2023/10/30 11:57:49;;;;;;;;;;;14.90;99.90;;;;;;5130116;27;19927;-75
2023/10/30 12:00:15;;;;;;;;;;;15.20;99.90;;;;;;5129604;27;19962;-75
2023/10/30 12:02:46;;;;;;;;;;;15.60;99.90;;;;;;5145911;27;19927;-76
2023/10/30 12:05:11;;;;;;;;;;;16.00;99.90;;;;;;5132487;27;19926;-75
2023/10/30 12:07:38;;;;;;;;;;;16.10;99.90;;;;;;5127748;27;19976;-74
2023/10/30 12:10:04;;;;;;;;;;;16.20;99.90;;;;;;5119474;27;19931;-76
2023/10/30 12:12:31;;;;;;;;;;;16.20;99.90;;;;;;5128344;27;19927;-76
2023/10/30 12:14:58;;;;;;;;;;;16.30;99.90;;;;;;5116239;27;19969;-75
2023/10/30 12:17:24;;;;;;;;;;;16.50;99.90;;;;;;5131522;27;19938;-76
2023/10/30 12:19:50;;;;;;;;;;;16.60;99.90;;;;;;5121168;27;20307;-76
2023/10/30 12:22:15;;;;;;;;;;;16.50;99.90;;;;;;5138271;27;19923;-76
2023/10/30 12:24:42;;;;;;;;;;;16.40;99.90;;;;;;5137422;27;19927;-75
2023/10/30 12:27:08;;;;;;;;;;;16.20;99.90;;;;;;5143821;27;19923;-75
2023/10/30 12:29:34;;;;;;;;;;;16.00;99.90;;;;;;5119745;27;19929;-76
2023/10/30 12:32:02;;;;;;;;;;;15.90;99.90;;;;;;5121393;27;19927;-76
2023/10/30 12:34:28;;;;;;;;;;;15.80;99.90;;;;;;5137965;27;19930;-76
2023/10/30 12:36:54;;;;;;;;;;;15.70;99.90;;;;;;5128696;27;20288;-75
2023/10/30 12:39:20;;;;;;;;;;;15.60;99.90;;;;;;5126749;27;20297;-75
2023/10/30 12:41:51;;;;;;;;;;;15.50;99.90;;;;;;5138540;27;19923;-76
2023/10/30 12:44:20;;;;;;;;;;;15.50;99.90;;;;;;5138320;27;20273;-75
2023/10/30 12:46:46;;;;;;;;;;;15.40;99.90;;;;;;5129793;27;20288;-77
2023/10/30 12:49:12;;;;;;;;;;;15.30;99.90;;;;;;5124004;27;19941;-76
2023/10/30 12:51:37;;;;;;;;;;;15.20;99.90;;;;;;5124578;27;19931;-75
2023/10/30 12:54:03;;;;;;;;;;;15.10;99.90;;;;;;5139130;27;20381;-75
2023/10/30 12:56:29;;;;;;;;;;;14.90;99.90;;;;;;5138176;27;20609;-76
2023/10/30 12:58:56;;;;;;;;;;;14.90;99.90;;;;;;5124445;27;19926;-75
2023/10/30 13:01:22;;;;;;;;;;;14.70;99.90;;;;;;5137096;27;19927;-75
2023/10/30 13:03:48;;;;;;;;;;;14.60;99.90;;;;;;5137432;27;19934;-74
2023/10/30 13:06:14;;;;;;;;;;;14.50;99.90;;;;;;5137813;27;19952;-75
2023/10/30 13:08:41;;;;;;;;;;;14.40;99.90;;;;;;5137156;27;20388;-75
2023/10/30 13:11:08;;;;;;;;;;;14.40;99.90;;;;;;5126817;27;19923;-76
2023/10/30 13:13:34;;;;;;;;;;;14.30;99.90;;;;;;5127597;27;20013;-75
2023/10/30 13:16:00;;;;;;;;;;;14.20;99.90;;;;;;5121338;27;20033;-75
2023/10/30 13:18:27;;;;;;;;;;;14.20;99.90;;;;;;5129294;27;20037;-75
2023/10/30 13:20:52;;;;;;;;;;;14.10;99.90;;;;;;5137305;27;19930;-75
2023/10/30 13:23:21;;;;;;;;;;;14.00;99.90;;;;;;5123163;27;19931;-75
2023/10/30 13:25:50;;;;;;;;;;;14.00;99.90;;;;;;5125975;27;20354;-76
2023/10/30 13:28:17;;;;;;;;;;;13.90;99.90;;;;;;5137860;27;19922;-75
2023/10/30 13:30:48;;;;;;;;;;;13.90;99.90;;;;;;5158474;27;19927;-75
2023/10/30 13:33:13;;;;;;;;;;;13.90;99.90;;;;;;5121281;27;19927;-75
2023/10/30 13:35:39;;;;;;;;;;;13.80;99.90;;;;;;5137743;27;19929;-76
2023/10/30 13:38:04;;;;;;;;;;;13.70;99.90;;;;;;5122737;27;20049;-75
2023/10/30 13:40:30;;;;;;;;;;;13.70;99.90;;;;;;5126292;27;19987;-75
2023/10/30 13:43:00;;;;;;;;;;;13.60;99.90;;;;;;5138471;27;19923;-74
2023/10/30 13:45:28;;;;;;;;;;;13.60;99.90;;;;;;5108323;27;19927;-75
2023/10/30 13:47:54;;;;;;;;;;;13.50;99.90;;;;;;5136557;27;19926;-75
2023/10/30 13:50:20;;;;;;;;;;;13.50;99.90;;;;;;5121728;27;20401;-75
2023/10/30 13:52:46;;;;;;;;;;;13.50;99.90;;;;;;5137886;27;19973;-75
2023/10/30 13:55:12;;;;;;;;;;;13.40;99.90;;;;;;5126366;27;19934;-76
2023/10/30 13:57:38;;;;;;;;;;;13.30;99.90;;;;;;5139508;27;19923;-75
2023/10/30 14:00:06;;;;;;;;;;;13.30;99.90;;;;;;5138820;27;20434;-74
2023/10/30 14:02:32;;;;;;;;;;;13.20;99.90;;;;;;5112064;27;19933;-75
2023/10/30 14:04:58;;;;;;;;;;;13.20;99.90;;;;;;5138615;27;19923;-75
2023/10/30 14:07:25;;;;;;;;;;;13.20;99.90;;;;;;5140887;27;19998;-74
2023/10/30 14:09:50;;;;;;;;;;;13.10;99.90;;;;;;5137652;27;19979;-75
2023/10/30 14:12:18;;;;;;;;;;;13.10;99.90;;;;;;5124187;27;19923;-74
2023/10/30 14:14:45;;;;;;;;;;;13.10;99.90;;;;;;5138287;27;19923;-75
2023/10/30 14:17:10;;;;;;;;;;;13.10;99.90;;;;;;5128219;27;19927;-75
2023/10/30 14:19:36;;;;;;;;;;;13.00;99.90;;;;;;5142846;27;19950;-75
2023/10/30 14:22:02;;;;;;;;;;;13.10;99.90;;;;;;5110593;27;20559;-75
2023/10/30 14:24:30;;;;;;;;;;;13.10;99.90;;;;;;5129939;27;20687;-75
2023/10/30 14:26:55;;;;;;;;;;;13.00;99.90;;;;;;5140772;27;19923;-75
2023/10/30 14:29:21;;;;;;;;;;;13.00;99.90;;;;;;5140209;27;19927;-74